sensor_id;sensor_type;location;lat;lon;timestamp;P1;durP1;ratioP1;P2;durP2;ratioP2
66129;SDS011;52930;51.464;11.764;2022-10-16T00:01:33;3.13;;;0.83;;
66129;SDS011;52930;51.464;11.764;2022-10-16T00:03:59;3.70;;;0.57;;
66129;SDS011;52930;51.464;11.764;2022-10-16T00:06:25;2.88;;;0.75;;
66129;SDS011;52930;51.464;11.764;2022-10-16T00:08:51;3.85;;;0.63;;
66129;SDS011;52930;51.464;11.764;2022-10-16T00:11:27;2.90;;;0.70;;
66129;SDS011;52930;51.464;11.764;2022-10-16T00:13:55;3.58;;;0.70;;
66129;SDS011;52930;51.464;11.764;2022-10-16T00:16:22;3.40;;;1.20;;
66129;SDS011;52930;51.464;11.764;2022-10-16T00:18:48;4.20;;;1.00;;
66129;SDS011;52930;51.464;11.764;2022-10-16T00:21:14;3.30;;;1.00;;
66129;SDS011;52930;51.464;11.764;2022-10-16T00:23:41;3.53;;;0.80;;
66129;SDS011;52930;51.464;11.764;2022-10-16T00:26:08;3.53;;;0.70;;
66129;SDS011;52930;51.464;11.764;2022-10-16T00:28:36;4.75;;;1.20;;
66129;SDS011;52930;51.464;11.764;2022-10-16T00:31:05;4.03;;;1.27;;
66129;SDS011;52930;51.464;11.764;2022-10-16T00:33:31;3.00;;;0.70;;
66129;SDS011;52930;51.464;11.764;2022-10-16T00:35:58;3.90;;;1.00;;
66129;SDS011;52930;51.464;11.764;2022-10-16T00:38:23;3.40;;;0.90;;
66129;SDS011;52930;51.464;11.764;2022-10-16T00:40:49;3.00;;;0.90;;
66129;SDS011;52930;51.464;11.764;2022-10-16T00:43:33;3.70;;;0.67;;
66129;SDS011;52930;51.464;11.764;2022-10-16T00:46:24;3.10;;;0.73;;
66129;SDS011;52930;51.464;11.764;2022-10-16T00:51:23;3.30;;;0.82;;
66129;SDS011;52930;51.464;11.764;2022-10-16T00:53:51;2.72;;;0.70;;
66129;SDS011;52930;51.464;11.764;2022-10-16T00:56:17;4.63;;;0.93;;
66129;SDS011;52930;51.464;11.764;2022-10-16T00:58:42;2.40;;;0.60;;
66129;SDS011;52930;51.464;11.764;2022-10-16T01:01:08;3.10;;;0.90;;
66129;SDS011;52930;51.464;11.764;2022-10-16T01:03:34;2.40;;;0.70;;
66129;SDS011;52930;51.464;11.764;2022-10-16T01:11:57;4.05;;;1.05;;
66129;SDS011;52930;51.464;11.764;2022-10-16T01:14:45;6.47;;;1.10;;
66129;SDS011;52930;51.464;11.764;2022-10-16T01:17:13;4.43;;;0.90;;
66129;SDS011;52930;51.464;11.764;2022-10-16T01:22:29;3.75;;;1.00;;
66129;SDS011;52930;51.464;11.764;2022-10-16T01:25:01;3.22;;;0.98;;
66129;SDS011;52930;51.464;11.764;2022-10-16T01:27:30;3.13;;;1.02;;
66129;SDS011;52930;51.464;11.764;2022-10-16T01:30:00;2.97;;;0.70;;
66129;SDS011;52930;51.464;11.764;2022-10-16T01:32:51;2.63;;;0.80;;
66129;SDS011;52930;51.464;11.764;2022-10-16T01:35:20;3.50;;;1.00;;
66129;SDS011;52930;51.464;11.764;2022-10-16T01:40:28;4.00;;;1.10;;
66129;SDS011;52930;51.464;11.764;2022-10-16T01:43:05;3.30;;;1.00;;
66129;SDS011;52930;51.464;11.764;2022-10-16T01:45:35;2.95;;;1.00;;
66129;SDS011;52930;51.464;11.764;2022-10-16T01:48:02;3.08;;;0.85;;
66129;SDS011;52930;51.464;11.764;2022-10-16T01:50:31;2.85;;;0.80;;
66129;SDS011;52930;51.464;11.764;2022-10-16T01:52:59;2.90;;;0.90;;
66129;SDS011;52930;51.464;11.764;2022-10-16T01:55:28;2.90;;;0.80;;
66129;SDS011;52930;51.464;11.764;2022-10-16T01:57:56;3.00;;;0.80;;
66129;SDS011;52930;51.464;11.764;2022-10-16T02:00:23;2.42;;;0.50;;
66129;SDS011;52930;51.464;11.764;2022-10-16T02:02:50;5.18;;;0.90;;
66129;SDS011;52930;51.464;11.764;2022-10-16T02:07:52;4.18;;;0.90;;
66129;SDS011;52930;51.464;11.764;2022-10-16T02:10:17;3.03;;;0.90;;
66129;SDS011;52930;51.464;11.764;2022-10-16T02:12:49;3.13;;;0.90;;
66129;SDS011;52930;51.464;11.764;2022-10-16T02:15:18;2.97;;;0.80;;
66129;SDS011;52930;51.464;11.764;2022-10-16T02:17:44;2.65;;;0.77;;
66129;SDS011;52930;51.464;11.764;2022-10-16T02:20:09;2.83;;;0.80;;
66129;SDS011;52930;51.464;11.764;2022-10-16T02:22:39;5.80;;;0.70;;
66129;SDS011;52930;51.464;11.764;2022-10-16T02:25:17;2.58;;;0.60;;
66129;SDS011;52930;51.464;11.764;2022-10-16T02:30:41;3.42;;;0.75;;
66129;SDS011;52930;51.464;11.764;2022-10-16T02:33:09;3.58;;;0.73;;
66129;SDS011;52930;51.464;11.764;2022-10-16T02:35:36;2.70;;;0.80;;
66129;SDS011;52930;51.464;11.764;2022-10-16T02:38:02;2.53;;;0.63;;
66129;SDS011;52930;51.464;11.764;2022-10-16T02:40:28;2.63;;;0.63;;
66129;SDS011;52930;51.464;11.764;2022-10-16T02:42:54;3.90;;;1.10;;
66129;SDS011;52930;51.464;11.764;2022-10-16T02:45:20;3.65;;;0.70;;
66129;SDS011;52930;51.464;11.764;2022-10-16T02:47:46;3.00;;;0.93;;
66129;SDS011;52930;51.464;11.764;2022-10-16T02:50:11;3.03;;;0.87;;
66129;SDS011;52930;51.464;11.764;2022-10-16T02:52:37;5.40;;;0.90;;
66129;SDS011;52930;51.464;11.764;2022-10-16T02:55:02;2.97;;;0.93;;
66129;SDS011;52930;51.464;11.764;2022-10-16T02:57:28;3.10;;;0.98;;
66129;SDS011;52930;51.464;11.764;2022-10-16T02:59:53;2.40;;;0.60;;
66129;SDS011;52930;51.464;11.764;2022-10-16T03:02:19;2.80;;;0.63;;
66129;SDS011;52930;51.464;11.764;2022-10-16T03:04:44;3.53;;;0.70;;
66129;SDS011;52930;51.464;11.764;2022-10-16T03:07:10;4.80;;;1.20;;
66129;SDS011;52930;51.464;11.764;2022-10-16T03:09:35;3.30;;;1.00;;
66129;SDS011;52930;51.464;11.764;2022-10-16T03:12:01;3.87;;;1.00;;
66129;SDS011;52930;51.464;11.764;2022-10-16T03:14:26;3.03;;;0.98;;
66129;SDS011;52930;51.464;11.764;2022-10-16T03:16:51;3.25;;;1.08;;
66129;SDS011;52930;51.464;11.764;2022-10-16T03:19:17;3.20;;;0.80;;
66129;SDS011;52930;51.464;11.764;2022-10-16T03:21:43;3.25;;;0.88;;
66129;SDS011;52930;51.464;11.764;2022-10-16T03:24:09;2.83;;;0.70;;
66129;SDS011;52930;51.464;11.764;2022-10-16T03:26:34;3.10;;;0.80;;
66129;SDS011;52930;51.464;11.764;2022-10-16T03:28:59;4.35;;;0.95;;
66129;SDS011;52930;51.464;11.764;2022-10-16T03:31:25;2.70;;;0.60;;
66129;SDS011;52930;51.464;11.764;2022-10-16T03:33:51;3.20;;;0.90;;
66129;SDS011;52930;51.464;11.764;2022-10-16T03:36:16;2.70;;;0.70;;
66129;SDS011;52930;51.464;11.764;2022-10-16T03:38:42;3.57;;;0.90;;
66129;SDS011;52930;51.464;11.764;2022-10-16T03:41:07;2.97;;;0.90;;
66129;SDS011;52930;51.464;11.764;2022-10-16T03:43:32;3.30;;;0.90;;
66129;SDS011;52930;51.464;11.764;2022-10-16T03:45:58;3.60;;;0.88;;
66129;SDS011;52930;51.464;11.764;2022-10-16T03:48:23;4.93;;;0.73;;
66129;SDS011;52930;51.464;11.764;2022-10-16T03:50:49;4.67;;;1.20;;
66129;SDS011;52930;51.464;11.764;2022-10-16T03:53:15;3.97;;;0.88;;
66129;SDS011;52930;51.464;11.764;2022-10-16T03:55:41;2.77;;;1.00;;
66129;SDS011;52930;51.464;11.764;2022-10-16T03:58:07;4.35;;;0.90;;
66129;SDS011;52930;51.464;11.764;2022-10-16T04:00:33;3.03;;;1.10;;
66129;SDS011;52930;51.464;11.764;2022-10-16T04:02:59;2.80;;;0.93;;
66129;SDS011;52930;51.464;11.764;2022-10-16T04:05:24;3.20;;;0.90;;
66129;SDS011;52930;51.464;11.764;2022-10-16T04:07:50;3.13;;;0.90;;
66129;SDS011;52930;51.464;11.764;2022-10-16T04:10:15;3.10;;;1.10;;
66129;SDS011;52930;51.464;11.764;2022-10-16T04:12:40;3.00;;;0.80;;
66129;SDS011;52930;51.464;11.764;2022-10-16T04:15:06;5.10;;;1.10;;
66129;SDS011;52930;51.464;11.764;2022-10-16T04:17:32;3.30;;;1.13;;
66129;SDS011;52930;51.464;11.764;2022-10-16T04:19:57;3.60;;;1.00;;
66129;SDS011;52930;51.464;11.764;2022-10-16T04:22:22;4.60;;;0.90;;
66129;SDS011;52930;51.464;11.764;2022-10-16T04:24:48;3.17;;;0.90;;
66129;SDS011;52930;51.464;11.764;2022-10-16T04:27:13;3.43;;;1.10;;
66129;SDS011;52930;51.464;11.764;2022-10-16T04:29:39;3.20;;;1.20;;
66129;SDS011;52930;51.464;11.764;2022-10-16T04:32:04;2.90;;;1.00;;
66129;SDS011;52930;51.464;11.764;2022-10-16T04:34:29;3.50;;;0.90;;
66129;SDS011;52930;51.464;11.764;2022-10-16T04:36:55;4.65;;;1.50;;
66129;SDS011;52930;51.464;11.764;2022-10-16T04:39:20;4.27;;;1.30;;
66129;SDS011;52930;51.464;11.764;2022-10-16T04:41:45;2.77;;;0.90;;
66129;SDS011;52930;51.464;11.764;2022-10-16T04:44:11;3.30;;;1.00;;
66129;SDS011;52930;51.464;11.764;2022-10-16T04:46:37;4.32;;;1.20;;
66129;SDS011;52930;51.464;11.764;2022-10-16T04:49:02;5.77;;;1.33;;
66129;SDS011;52930;51.464;11.764;2022-10-16T04:51:27;4.17;;;1.57;;
66129;SDS011;52930;51.464;11.764;2022-10-16T04:53:53;3.83;;;1.70;;
66129;SDS011;52930;51.464;11.764;2022-10-16T04:56:19;4.20;;;1.70;;
66129;SDS011;52930;51.464;11.764;2022-10-16T04:58:46;5.97;;;2.47;;
66129;SDS011;52930;51.464;11.764;2022-10-16T05:01:11;5.20;;;2.37;;
66129;SDS011;52930;51.464;11.764;2022-10-16T05:03:37;4.40;;;2.03;;
66129;SDS011;52930;51.464;11.764;2022-10-16T05:06:04;5.80;;;2.20;;
66129;SDS011;52930;51.464;11.764;2022-10-16T05:08:30;6.17;;;2.70;;
66129;SDS011;52930;51.464;11.764;2022-10-16T05:10:55;6.80;;;2.45;;
66129;SDS011;52930;51.464;11.764;2022-10-16T05:13:21;5.23;;;2.13;;
66129;SDS011;52930;51.464;11.764;2022-10-16T05:15:48;5.10;;;2.05;;
66129;SDS011;52930;51.464;11.764;2022-10-16T05:18:14;5.33;;;2.50;;
66129;SDS011;52930;51.464;11.764;2022-10-16T05:20:39;6.53;;;2.75;;
66129;SDS011;52930;51.464;11.764;2022-10-16T05:23:04;5.97;;;2.50;;
66129;SDS011;52930;51.464;11.764;2022-10-16T05:25:30;5.00;;;2.43;;
66129;SDS011;52930;51.464;11.764;2022-10-16T05:27:55;5.47;;;2.60;;
66129;SDS011;52930;51.464;11.764;2022-10-16T05:30:20;6.50;;;2.30;;
66129;SDS011;52930;51.464;11.764;2022-10-16T05:32:47;4.53;;;2.03;;
66129;SDS011;52930;51.464;11.764;2022-10-16T05:35:13;4.10;;;1.90;;
66129;SDS011;52930;51.464;11.764;2022-10-16T05:37:39;4.07;;;1.50;;
66129;SDS011;52930;51.464;11.764;2022-10-16T05:40:04;4.27;;;1.97;;
66129;SDS011;52930;51.464;11.764;2022-10-16T05:42:30;5.95;;;2.00;;
66129;SDS011;52930;51.464;11.764;2022-10-16T05:44:55;5.18;;;1.88;;
66129;SDS011;52930;51.464;11.764;2022-10-16T05:47:21;3.90;;;1.90;;
66129;SDS011;52930;51.464;11.764;2022-10-16T05:49:46;3.60;;;1.50;;
66129;SDS011;52930;51.464;11.764;2022-10-16T05:52:12;4.90;;;1.40;;
66129;SDS011;52930;51.464;11.764;2022-10-16T05:54:37;5.30;;;1.83;;
66129;SDS011;52930;51.464;11.764;2022-10-16T05:57:02;5.50;;;1.55;;
66129;SDS011;52930;51.464;11.764;2022-10-16T05:59:30;6.07;;;1.77;;
66129;SDS011;52930;51.464;11.764;2022-10-16T06:01:56;4.63;;;1.45;;
66129;SDS011;52930;51.464;11.764;2022-10-16T06:04:21;4.43;;;1.60;;
66129;SDS011;52930;51.464;11.764;2022-10-16T06:06:46;3.60;;;1.50;;
66129;SDS011;52930;51.464;11.764;2022-10-16T06:09:12;6.60;;;1.80;;
66129;SDS011;52930;51.464;11.764;2022-10-16T06:11:37;4.00;;;1.60;;
66129;SDS011;52930;51.464;11.764;2022-10-16T06:14:02;3.90;;;1.70;;
66129;SDS011;52930;51.464;11.764;2022-10-16T06:16:31;4.43;;;1.70;;
66129;SDS011;52930;51.464;11.764;2022-10-16T06:18:58;4.75;;;1.20;;
66129;SDS011;52930;51.464;11.764;2022-10-16T06:21:27;3.28;;;1.05;;
66129;SDS011;52930;51.464;11.764;2022-10-16T06:23:54;3.40;;;1.20;;
66129;SDS011;52930;51.464;11.764;2022-10-16T06:26:20;4.57;;;1.40;;
66129;SDS011;52930;51.464;11.764;2022-10-16T06:28:47;5.35;;;1.30;;
66129;SDS011;52930;51.464;11.764;2022-10-16T06:31:13;3.70;;;1.50;;
66129;SDS011;52930;51.464;11.764;2022-10-16T06:33:39;5.13;;;1.40;;
66129;SDS011;52930;51.464;11.764;2022-10-16T06:36:05;3.97;;;1.38;;
66129;SDS011;52930;51.464;11.764;2022-10-16T06:38:34;5.87;;;1.60;;
66129;SDS011;52930;51.464;11.764;2022-10-16T06:41:00;2.80;;;1.05;;
66129;SDS011;52930;51.464;11.764;2022-10-16T06:43:25;3.35;;;1.35;;
66129;SDS011;52930;51.464;11.764;2022-10-16T06:45:54;4.23;;;1.20;;
66129;SDS011;52930;51.464;11.764;2022-10-16T06:48:21;2.97;;;1.00;;
66129;SDS011;52930;51.464;11.764;2022-10-16T06:50:59;4.53;;;1.30;;
66129;SDS011;52930;51.464;11.764;2022-10-16T06:53:27;3.42;;;1.20;;
66129;SDS011;52930;51.464;11.764;2022-10-16T06:55:54;5.07;;;1.30;;
66129;SDS011;52930;51.464;11.764;2022-10-16T06:58:19;3.20;;;1.10;;
66129;SDS011;52930;51.464;11.764;2022-10-16T07:00:45;3.65;;;0.98;;
66129;SDS011;52930;51.464;11.764;2022-10-16T07:03:11;3.80;;;0.93;;
66129;SDS011;52930;51.464;11.764;2022-10-16T07:05:37;4.93;;;0.80;;
66129;SDS011;52930;51.464;11.764;2022-10-16T07:08:06;3.22;;;1.10;;
66129;SDS011;52930;51.464;11.764;2022-10-16T07:10:32;3.15;;;1.20;;
66129;SDS011;52930;51.464;11.764;2022-10-16T07:12:58;2.80;;;0.90;;
66129;SDS011;52930;51.464;11.764;2022-10-16T07:15:24;3.37;;;1.10;;
66129;SDS011;52930;51.464;11.764;2022-10-16T07:17:49;2.95;;;0.98;;
66129;SDS011;52930;51.464;11.764;2022-10-16T07:20:15;2.90;;;0.70;;
66129;SDS011;52930;51.464;11.764;2022-10-16T07:22:40;4.50;;;0.63;;
66129;SDS011;52930;51.464;11.764;2022-10-16T07:25:06;3.40;;;0.77;;
66129;SDS011;52930;51.464;11.764;2022-10-16T07:27:31;2.63;;;0.70;;
66129;SDS011;52930;51.464;11.764;2022-10-16T07:29:57;3.50;;;0.77;;
66129;SDS011;52930;51.464;11.764;2022-10-16T07:32:22;2.90;;;0.77;;
66129;SDS011;52930;51.464;11.764;2022-10-16T07:34:48;3.15;;;0.98;;
66129;SDS011;52930;51.464;11.764;2022-10-16T07:37:14;2.63;;;0.63;;
66129;SDS011;52930;51.464;11.764;2022-10-16T07:39:39;2.53;;;0.80;;
66129;SDS011;52930;51.464;11.764;2022-10-16T07:42:04;3.70;;;1.00;;
66129;SDS011;52930;51.464;11.764;2022-10-16T07:44:30;5.40;;;0.83;;
66129;SDS011;52930;51.464;11.764;2022-10-16T07:46:55;3.03;;;0.70;;
66129;SDS011;52930;51.464;11.764;2022-10-16T07:49:21;2.33;;;0.40;;
66129;SDS011;52930;51.464;11.764;2022-10-16T07:51:46;2.70;;;0.70;;
66129;SDS011;52930;51.464;11.764;2022-10-16T07:54:11;2.60;;;0.63;;
66129;SDS011;52930;51.464;11.764;2022-10-16T07:56:37;3.37;;;0.77;;
66129;SDS011;52930;51.464;11.764;2022-10-16T07:59:02;2.65;;;0.70;;
66129;SDS011;52930;51.464;11.764;2022-10-16T08:01:28;2.40;;;0.50;;
66129;SDS011;52930;51.464;11.764;2022-10-16T08:03:53;5.40;;;0.67;;
66129;SDS011;52930;51.464;11.764;2022-10-16T08:06:19;2.87;;;0.60;;
66129;SDS011;52930;51.464;11.764;2022-10-16T08:08:46;2.70;;;0.63;;
66129;SDS011;52930;51.464;11.764;2022-10-16T08:11:12;4.15;;;0.80;;
66129;SDS011;52930;51.464;11.764;2022-10-16T08:13:39;2.70;;;0.80;;
66129;SDS011;52930;51.464;11.764;2022-10-16T08:16:04;2.77;;;0.73;;
66129;SDS011;52930;51.464;11.764;2022-10-16T08:18:39;2.63;;;0.60;;
66129;SDS011;52930;51.464;11.764;2022-10-16T08:21:06;2.73;;;0.70;;
66129;SDS011;52930;51.464;11.764;2022-10-16T08:23:32;2.70;;;0.50;;
66129;SDS011;52930;51.464;11.764;2022-10-16T08:26:02;2.33;;;0.50;;
66129;SDS011;52930;51.464;11.764;2022-10-16T08:28:28;3.08;;;0.80;;
66129;SDS011;52930;51.464;11.764;2022-10-16T08:30:54;6.90;;;0.70;;
66129;SDS011;52930;51.464;11.764;2022-10-16T08:33:21;2.75;;;0.82;;
66129;SDS011;52930;51.464;11.764;2022-10-16T08:35:50;3.33;;;0.80;;
66129;SDS011;52930;51.464;11.764;2022-10-16T08:38:19;3.70;;;0.70;;
66129;SDS011;52930;51.464;11.764;2022-10-16T08:40:45;2.60;;;0.70;;
66129;SDS011;52930;51.464;11.764;2022-10-16T08:48:19;2.67;;;0.50;;
66129;SDS011;52930;51.464;11.764;2022-10-16T08:50:55;3.05;;;0.68;;
66129;SDS011;52930;51.464;11.764;2022-10-16T08:53:23;3.30;;;0.80;;
66129;SDS011;52930;51.464;11.764;2022-10-16T08:55:52;2.35;;;0.60;;
66129;SDS011;52930;51.464;11.764;2022-10-16T08:58:19;2.38;;;0.45;;
66129;SDS011;52930;51.464;11.764;2022-10-16T09:00:47;4.00;;;0.60;;
66129;SDS011;52930;51.464;11.764;2022-10-16T09:03:16;3.10;;;0.60;;
66129;SDS011;52930;51.464;11.764;2022-10-16T09:08:52;3.13;;;0.60;;
66129;SDS011;52930;51.464;11.764;2022-10-16T09:14:27;5.55;;;0.52;;
66129;SDS011;52930;51.464;11.764;2022-10-16T09:19:52;1.98;;;0.35;;
66129;SDS011;52930;51.464;11.764;2022-10-16T09:22:28;2.10;;;0.30;;
66129;SDS011;52930;51.464;11.764;2022-10-16T09:24:55;2.67;;;0.60;;
66129;SDS011;52930;51.464;11.764;2022-10-16T09:27:22;2.10;;;0.40;;
66129;SDS011;52930;51.464;11.764;2022-10-16T09:29:48;2.72;;;0.35;;
66129;SDS011;52930;51.464;11.764;2022-10-16T09:32:17;3.57;;;0.50;;
66129;SDS011;52930;51.464;11.764;2022-10-16T09:34:48;2.28;;;0.40;;
66129;SDS011;52930;51.464;11.764;2022-10-16T09:37:17;2.38;;;0.50;;
66129;SDS011;52930;51.464;11.764;2022-10-16T09:39:54;2.60;;;0.60;;
66129;SDS011;52930;51.464;11.764;2022-10-16T09:42:20;3.20;;;0.50;;
66129;SDS011;52930;51.464;11.764;2022-10-16T09:44:52;3.00;;;0.83;;
66129;SDS011;52930;51.464;11.764;2022-10-16T09:47:23;2.40;;;0.65;;
66129;SDS011;52930;51.464;11.764;2022-10-16T09:49:51;2.85;;;0.70;;
66129;SDS011;52930;51.464;11.764;2022-10-16T09:52:16;2.30;;;0.65;;
66129;SDS011;52930;51.464;11.764;2022-10-16T09:54:50;2.30;;;0.40;;
66129;SDS011;52930;51.464;11.764;2022-10-16T09:57:23;2.50;;;0.50;;
66129;SDS011;52930;51.464;11.764;2022-10-16T09:59:50;2.70;;;0.70;;
66129;SDS011;52930;51.464;11.764;2022-10-16T10:02:35;2.42;;;0.60;;
66129;SDS011;52930;51.464;11.764;2022-10-16T10:05:04;2.38;;;0.52;;
66129;SDS011;52930;51.464;11.764;2022-10-16T10:07:33;2.85;;;0.70;;
66129;SDS011;52930;51.464;11.764;2022-10-16T10:10:03;3.10;;;0.40;;
66129;SDS011;52930;51.464;11.764;2022-10-16T10:12:30;3.15;;;0.50;;
66129;SDS011;52930;51.464;11.764;2022-10-16T10:17:32;2.70;;;0.70;;
66129;SDS011;52930;51.464;11.764;2022-10-16T10:19:58;2.40;;;0.60;;
66129;SDS011;52930;51.464;11.764;2022-10-16T10:22:43;2.65;;;0.60;;
66129;SDS011;52930;51.464;11.764;2022-10-16T10:36:09;2.72;;;0.60;;
66129;SDS011;52930;51.464;11.764;2022-10-16T10:38:43;2.00;;;0.45;;
66129;SDS011;52930;51.464;11.764;2022-10-16T10:46:23;2.80;;;0.40;;
66129;SDS011;52930;51.464;11.764;2022-10-16T10:57:28;2.60;;;0.55;;
66129;SDS011;52930;51.464;11.764;2022-10-16T10:59:58;3.10;;;0.50;;
66129;SDS011;52930;51.464;11.764;2022-10-16T11:07:52;2.47;;;0.47;;
66129;SDS011;52930;51.464;11.764;2022-10-16T11:10:23;2.30;;;0.50;;
66129;SDS011;52930;51.464;11.764;2022-10-16T11:12:52;2.22;;;0.60;;
66129;SDS011;52930;51.464;11.764;2022-10-16T11:15:32;4.40;;;0.50;;
66129;SDS011;52930;51.464;11.764;2022-10-16T11:18:08;3.60;;;0.45;;
66129;SDS011;52930;51.464;11.764;2022-10-16T11:20:49;3.30;;;0.60;;
66129;SDS011;52930;51.464;11.764;2022-10-16T11:23:23;2.72;;;0.60;;
66129;SDS011;52930;51.464;11.764;2022-10-16T11:25:50;3.75;;;0.50;;
66129;SDS011;52930;51.464;11.764;2022-10-16T11:30:47;3.35;;;0.57;;
66129;SDS011;52930;51.464;11.764;2022-10-16T11:33:33;2.50;;;0.60;;
66129;SDS011;52930;51.464;11.764;2022-10-16T11:38:35;2.83;;;0.50;;
66129;SDS011;52930;51.464;11.764;2022-10-16T11:41:06;2.30;;;0.50;;
66129;SDS011;52930;51.464;11.764;2022-10-16T11:43:38;2.45;;;0.50;;
66129;SDS011;52930;51.464;11.764;2022-10-16T11:46:13;4.38;;;0.70;;
66129;SDS011;52930;51.464;11.764;2022-10-16T11:48:49;2.72;;;0.73;;
66129;SDS011;52930;51.464;11.764;2022-10-16T11:54:18;4.27;;;0.67;;
66129;SDS011;52930;51.464;11.764;2022-10-16T11:56:48;2.38;;;0.50;;
66129;SDS011;52930;51.464;11.764;2022-10-16T12:01:48;2.20;;;0.50;;
66129;SDS011;52930;51.464;11.764;2022-10-16T12:04:22;2.28;;;0.50;;
66129;SDS011;52930;51.464;11.764;2022-10-16T12:06:58;2.33;;;0.55;;
66129;SDS011;52930;51.464;11.764;2022-10-16T12:09:28;2.35;;;0.50;;
66129;SDS011;52930;51.464;11.764;2022-10-16T12:11:56;4.00;;;0.70;;
66129;SDS011;52930;51.464;11.764;2022-10-16T12:16:57;3.05;;;0.50;;
66129;SDS011;52930;51.464;11.764;2022-10-16T12:19:41;2.10;;;0.40;;
66129;SDS011;52930;51.464;11.764;2022-10-16T12:22:15;2.67;;;0.43;;
66129;SDS011;52930;51.464;11.764;2022-10-16T12:24:43;2.38;;;0.40;;
66129;SDS011;52930;51.464;11.764;2022-10-16T12:27:25;9.73;;;0.77;;
66129;SDS011;52930;51.464;11.764;2022-10-16T12:29:55;3.47;;;0.38;;
66129;SDS011;52930;51.464;11.764;2022-10-16T12:32:32;2.40;;;0.65;;
66129;SDS011;52930;51.464;11.764;2022-10-16T12:35:02;2.90;;;0.90;;
66129;SDS011;52930;51.464;11.764;2022-10-16T12:37:35;2.72;;;0.43;;
66129;SDS011;52930;51.464;11.764;2022-10-16T12:40:11;2.58;;;0.60;;
66129;SDS011;52930;51.464;11.764;2022-10-16T12:42:58;2.55;;;0.40;;
66129;SDS011;52930;51.464;11.764;2022-10-16T12:45:41;2.27;;;0.50;;
66129;SDS011;52930;51.464;11.764;2022-10-16T12:48:18;2.03;;;0.50;;
66129;SDS011;52930;51.464;11.764;2022-10-16T12:50:46;2.63;;;0.68;;
66129;SDS011;52930;51.464;11.764;2022-10-16T12:53:22;2.50;;;0.70;;
66129;SDS011;52930;51.464;11.764;2022-10-16T12:55:54;3.00;;;0.50;;
66129;SDS011;52930;51.464;11.764;2022-10-16T13:07:17;2.40;;;0.60;;
66129;SDS011;52930;51.464;11.764;2022-10-16T13:09:21;3.17;;;0.50;;
66129;SDS011;52930;51.464;11.764;2022-10-16T13:15:07;2.45;;;0.70;;
66129;SDS011;52930;51.464;11.764;2022-10-16T13:23:02;2.97;;;0.90;;
66129;SDS011;52930;51.464;11.764;2022-10-16T13:28:39;2.90;;;0.85;;
66129;SDS011;52930;51.464;11.764;2022-10-16T13:31:05;3.50;;;0.68;;
66129;SDS011;52930;51.464;11.764;2022-10-16T13:33:39;3.20;;;0.80;;
66129;SDS011;52930;51.464;11.764;2022-10-16T13:36:17;4.55;;;0.82;;
66129;SDS011;52930;51.464;11.764;2022-10-16T13:38:44;2.80;;;0.80;;
66129;SDS011;52930;51.464;11.764;2022-10-16T13:41:17;2.87;;;0.87;;
66129;SDS011;52930;51.464;11.764;2022-10-16T13:43:44;2.65;;;0.70;;
66129;SDS011;52930;51.464;11.764;2022-10-16T13:48:43;5.10;;;0.73;;
66129;SDS011;52930;51.464;11.764;2022-10-16T13:51:16;3.57;;;0.63;;
66129;SDS011;52930;51.464;11.764;2022-10-16T13:53:43;4.00;;;0.63;;
66129;SDS011;52930;51.464;11.764;2022-10-16T13:56:13;3.28;;;0.63;;
66129;SDS011;52930;51.464;11.764;2022-10-16T13:58:40;2.50;;;0.90;;
66129;SDS011;52930;51.464;11.764;2022-10-16T14:01:15;2.57;;;0.60;;
66129;SDS011;52930;51.464;11.764;2022-10-16T14:03:42;2.45;;;0.65;;
66129;SDS011;52930;51.464;11.764;2022-10-16T14:06:11;8.17;;;0.93;;
66129;SDS011;52930;51.464;11.764;2022-10-16T14:08:41;3.80;;;0.60;;
66129;SDS011;52930;51.464;11.764;2022-10-16T14:11:08;2.45;;;0.50;;
66129;SDS011;52930;51.464;11.764;2022-10-16T14:13:36;3.30;;;1.00;;
66129;SDS011;52930;51.464;11.764;2022-10-16T14:16:05;2.53;;;0.70;;
66129;SDS011;52930;51.464;11.764;2022-10-16T14:18:32;4.32;;;0.77;;
66129;SDS011;52930;51.464;11.764;2022-10-16T14:21:05;2.67;;;0.50;;
66129;SDS011;52930;51.464;11.764;2022-10-16T14:23:35;3.03;;;0.65;;
66129;SDS011;52930;51.464;11.764;2022-10-16T14:28:34;2.42;;;0.45;;
66129;SDS011;52930;51.464;11.764;2022-10-16T14:31:00;2.67;;;0.50;;
66129;SDS011;52930;51.464;11.764;2022-10-16T14:36:02;3.33;;;0.65;;
66129;SDS011;52930;51.464;11.764;2022-10-16T14:38:35;2.70;;;0.60;;
66129;SDS011;52930;51.464;11.764;2022-10-16T14:41:01;2.50;;;0.60;;
66129;SDS011;52930;51.464;11.764;2022-10-16T14:43:35;2.72;;;0.60;;
66129;SDS011;52930;51.464;11.764;2022-10-16T14:46:23;3.40;;;1.03;;
66129;SDS011;52930;51.464;11.764;2022-10-16T14:48:52;2.60;;;0.70;;
66129;SDS011;52930;51.464;11.764;2022-10-16T14:51:24;3.08;;;0.55;;
66129;SDS011;52930;51.464;11.764;2022-10-16T14:53:50;2.50;;;0.50;;
66129;SDS011;52930;51.464;11.764;2022-10-16T14:56:16;2.60;;;0.50;;
66129;SDS011;52930;51.464;11.764;2022-10-16T14:58:43;3.15;;;0.80;;
66129;SDS011;52930;51.464;11.764;2022-10-16T15:01:09;3.00;;;0.50;;
66129;SDS011;52930;51.464;11.764;2022-10-16T15:03:36;3.30;;;0.70;;
66129;SDS011;52930;51.464;11.764;2022-10-16T15:06:02;3.78;;;0.63;;
66129;SDS011;52930;51.464;11.764;2022-10-16T15:08:28;3.10;;;0.50;;
66129;SDS011;52930;51.464;11.764;2022-10-16T15:10:53;2.50;;;0.60;;
66129;SDS011;52930;51.464;11.764;2022-10-16T15:13:19;2.83;;;0.60;;
66129;SDS011;52930;51.464;11.764;2022-10-16T15:15:45;3.58;;;0.65;;
66129;SDS011;52930;51.464;11.764;2022-10-16T15:18:14;2.73;;;0.57;;
66129;SDS011;52930;51.464;11.764;2022-10-16T15:20:44;3.03;;;0.82;;
66129;SDS011;52930;51.464;11.764;2022-10-16T15:23:13;2.92;;;0.77;;
66129;SDS011;52930;51.464;11.764;2022-10-16T15:28:16;2.90;;;0.80;;
66129;SDS011;52930;51.464;11.764;2022-10-16T15:30:43;2.40;;;0.50;;
66129;SDS011;52930;51.464;11.764;2022-10-16T15:33:15;2.38;;;0.50;;
66129;SDS011;52930;51.464;11.764;2022-10-16T15:35:42;3.85;;;0.70;;
66129;SDS011;52930;51.464;11.764;2022-10-16T15:38:11;3.28;;;0.93;;
66129;SDS011;52930;51.464;11.764;2022-10-16T15:40:37;3.30;;;0.67;;
66129;SDS011;52930;51.464;11.764;2022-10-16T15:43:03;2.60;;;0.65;;
66129;SDS011;52930;51.464;11.764;2022-10-16T15:45:28;3.00;;;0.60;;
66129;SDS011;52930;51.464;11.764;2022-10-16T15:47:53;2.40;;;0.60;;
66129;SDS011;52930;51.464;11.764;2022-10-16T15:50:19;2.50;;;0.57;;
66129;SDS011;52930;51.464;11.764;2022-10-16T15:52:44;2.72;;;0.63;;
66129;SDS011;52930;51.464;11.764;2022-10-16T15:55:11;2.47;;;0.47;;
66129;SDS011;52930;51.464;11.764;2022-10-16T15:57:38;2.90;;;0.68;;
66129;SDS011;52930;51.464;11.764;2022-10-16T16:00:08;2.60;;;0.80;;
66129;SDS011;52930;51.464;11.764;2022-10-16T16:02:35;4.05;;;0.80;;
66129;SDS011;52930;51.464;11.764;2022-10-16T16:05:00;2.80;;;0.57;;
66129;SDS011;52930;51.464;11.764;2022-10-16T16:07:26;3.40;;;0.63;;
66129;SDS011;52930;51.464;11.764;2022-10-16T16:09:52;3.60;;;0.75;;
66129;SDS011;52930;51.464;11.764;2022-10-16T16:12:18;2.97;;;0.80;;
66129;SDS011;52930;51.464;11.764;2022-10-16T16:14:43;6.17;;;1.87;;
66129;SDS011;52930;51.464;11.764;2022-10-16T16:17:11;4.95;;;1.67;;
66129;SDS011;52930;51.464;11.764;2022-10-16T16:19:36;3.47;;;1.20;;
66129;SDS011;52930;51.464;11.764;2022-10-16T16:22:01;4.10;;;1.00;;
66129;SDS011;52930;51.464;11.764;2022-10-16T16:24:27;2.72;;;0.70;;
66129;SDS011;52930;51.464;11.764;2022-10-16T16:26:53;3.27;;;0.70;;
66129;SDS011;52930;51.464;11.764;2022-10-16T16:29:18;2.77;;;0.90;;